Orbital elements of FENGYUN 1C DEB
| Launched | 9 May 1999 |
| Flight ended | – |
| Launch site | Taiyuan Space Center, PRC |
| Owner | People's Republic of China |
| NORAD ID | 36652 |
| Date fetched |
Epoch osculation |
Inc. [°] |
Ecc. | RA asc node [hr] |
Arg Peri. [°] |
Mean anom [°] |
Mean motion [rev/day] |
Abs. mag |
| Date fetched |
Epoch osculation |
Inc. [°] |
Ecc. | RA asc node [hr] |
Arg Peri. [°] |
Mean anom [°] |
Mean motion [rev/day] |
Abs. mag |
| 2026 May 03 17:57 | 2026 Apr 29 11:28:31 | 98.9328 | 0.00489 | 13.9189 | 317.2594 | 42.4786 | 14.23980 | – |
| 2026 May 02 17:57 | 2026 Apr 29 11:28:31 | 98.9328 | 0.00489 | 13.9189 | 317.2594 | 42.4786 | 14.23980 | – |
| 2026 May 01 17:56 | 2026 Apr 29 11:28:31 | 98.9328 | 0.00489 | 13.9189 | 317.2594 | 42.4786 | 14.23980 | – |
| 2026 Apr 30 17:56 | 2026 Apr 29 11:28:31 | 98.9328 | 0.00489 | 13.9189 | 317.2594 | 42.4786 | 14.23980 | – |
| 2026 Apr 29 17:57 | 2026 Apr 24 04:59:50 | 98.9321 | 0.00489 | 13.5620 | 333.1170 | 42.4786 | 14.23980 | – |
| 2026 Apr 28 17:56 | 2026 Apr 24 04:59:50 | 98.9321 | 0.00489 | 13.5620 | 333.1170 | 42.4786 | 14.23980 | – |
| 2026 Apr 27 17:58 | 2026 Apr 24 04:59:50 | 98.9321 | 0.00489 | 13.5620 | 333.1170 | 42.4786 | 14.23980 | – |
| 2026 Apr 26 17:58 | 2026 Apr 24 04:59:50 | 98.9321 | 0.00489 | 13.5620 | 333.1170 | 42.4786 | 14.23980 | – |
| 2026 Apr 25 17:58 | 2026 Apr 24 04:59:50 | 98.9321 | 0.00489 | 13.5620 | 333.1170 | 42.4786 | 14.23980 | – |
| 2026 Apr 24 17:59 | 2026 Apr 24 04:59:50 | 98.9321 | 0.00489 | 13.5620 | 333.1170 | 42.4786 | 14.23980 | – |
| 2026 Apr 23 17:57 | 2026 Apr 18 12:23:54 | 98.9318 | 0.00492 | 13.1764 | 350.2556 | 42.4786 | 14.23980 | – |
| 2026 Apr 22 17:57 | 2026 Apr 18 12:23:54 | 98.9318 | 0.00492 | 13.1764 | 350.2556 | 42.4786 | 14.23980 | – |
| 2026 Apr 21 17:57 | 2026 Apr 18 12:23:54 | 98.9318 | 0.00492 | 13.1764 | 350.2556 | 42.4786 | 14.23980 | – |
| 2026 Apr 20 17:57 | 2026 Apr 18 12:23:54 | 98.9318 | 0.00492 | 13.1764 | 350.2556 | 42.4786 | 14.23980 | – |
| 2026 Apr 19 17:58 | 2026 Apr 18 12:23:54 | 98.9318 | 0.00492 | 13.1764 | 350.2556 | 42.4786 | 14.23980 | – |
| 2026 Apr 18 17:56 | 2026 Apr 12 23:10:12 | 98.9317 | 0.00495 | 12.8005 | 6.7709 | 42.4786 | 14.23980 | – |
| 2026 Apr 16 17:57 | 2026 Apr 12 23:10:12 | 98.9317 | 0.00495 | 12.8005 | 6.7709 | 42.4786 | 14.23980 | – |
| 2026 Apr 14 17:57 | 2026 Apr 12 23:10:12 | 98.9317 | 0.00495 | 12.8005 | 6.7709 | 42.4786 | 14.23980 | – |
| 2026 Apr 13 17:57 | 2026 Apr 12 23:10:12 | 98.9317 | 0.00495 | 12.8005 | 6.7709 | 42.4786 | 14.23980 | – |
| 2026 Apr 12 17:57 | 2026 Apr 08 04:29:28 | 98.9314 | 0.00499 | 12.4769 | 20.9645 | 42.4786 | 14.23980 | – |
| 2026 Apr 11 17:57 | 2026 Apr 08 04:29:28 | 98.9314 | 0.00499 | 12.4769 | 20.9645 | 42.4786 | 14.23980 | – |
| 2026 Apr 10 17:58 | 2026 Apr 08 04:29:28 | 98.9314 | 0.00499 | 12.4769 | 20.9645 | 42.4786 | 14.23980 | – |
| 2026 Apr 09 18:01 | 2026 Apr 08 04:29:28 | 98.9314 | 0.00499 | 12.4769 | 20.9645 | 42.4786 | 14.23980 | – |
| 2026 Apr 08 17:57 | 2026 Apr 08 04:29:28 | 98.9314 | 0.00499 | 12.4769 | 20.9645 | 42.4786 | 14.23980 | – |
| 2026 Apr 07 17:57 | 2026 Apr 01 12:16:25 | 98.9322 | 0.00507 | 12.0248 | 40.6430 | 42.4786 | 14.23980 | – |
| 2026 Apr 06 17:57 | 2026 Apr 01 12:16:25 | 98.9322 | 0.00507 | 12.0248 | 40.6430 | 42.4786 | 14.23980 | – |